LFJL/ETZ METAR and TAF weather

Enter ICAO airport designator
Station Type Date Time Source
LFJL METAR 2020/01/29 12:30 UTC NOAA

LFJL 291230Z AUTO 26017KT 9999 BKN020 BKN027 OVC032 07/03 Q1012 TEMPO 24015G25KT 4000 SHRA FEW020TCU


Station Type Date Time Source
LFJL Decoded METAR 2020/01/29 12:30 UTC NOAA

Metz-Nancy-Lorraine, France (LFJL) 48-59N 006-15E
Jan 29, 2020 - 07:30 AM EST / 2020.01.29 1230 UTC
Wind: from the W (260 degrees) at 20 MPH (17 KT):0
Visibility: greater than 7 mile(s):0
Sky conditions: overcast
Weather: Towering cumulus clouds observed
Temperature: 44 F (7 C)
Dew Point: 37 F (3 C)
Relative Humidity: 75%
Pressure (altimeter): 29.88 in. Hg (1012 hPa)
ob: LFJL 291230Z AUTO 26017KT 9999 BKN020 BKN027 OVC032 07/03 Q1012 TEMPO 24015G25KT 4000 SHRA FEW020TCU
cycle: 12

Station Type Date Time Source
LFJL TAF 2020/01/29 12:21 UTC NOAA

TAF LFJL 291100Z 2912/3012 24012KT 9999 SCT020 BKN040
TEMPO 2912/2914 24015G25KT 4000 SHRA BKN012 SCT020TCU PROB40
TEMPO 2914/2921 -SHRA FEW020TCU PROB40
TEMPO 3000/3006 BKN010
BECMG 3003/3006 17010KT

Example: see airport list